sensor_id;sensor_type;location;lat;lon;timestamp;temperature;humidity
24664;DHT22;12791;50.992;13.788;2022-08-19T00:01:38;22.70;91.40
24664;DHT22;12791;50.992;13.788;2022-08-19T00:04:08;22.70;91.40
24664;DHT22;12791;50.992;13.788;2022-08-19T00:06:36;22.70;91.60
24664;DHT22;12791;50.992;13.788;2022-08-19T00:09:04;22.70;91.70
24664;DHT22;12791;50.992;13.788;2022-08-19T00:11:33;22.70;91.70
24664;DHT22;12791;50.992;13.788;2022-08-19T00:14:02;22.70;91.80
24664;DHT22;12791;50.992;13.788;2022-08-19T00:16:29;22.70;92.00
24664;DHT22;12791;50.992;13.788;2022-08-19T00:18:56;22.70;92.20
24664;DHT22;12791;50.992;13.788;2022-08-19T00:21:24;22.60;92.40
24664;DHT22;12791;50.992;13.788;2022-08-19T00:23:51;22.60;92.70
24664;DHT22;12791;50.992;13.788;2022-08-19T00:26:18;22.50;93.00
24664;DHT22;12791;50.992;13.788;2022-08-19T00:28:47;22.50;93.30
24664;DHT22;12791;50.992;13.788;2022-08-19T00:31:13;22.50;93.40
24664;DHT22;12791;50.992;13.788;2022-08-19T00:33:41;22.50;93.50
24664;DHT22;12791;50.992;13.788;2022-08-19T00:36:09;22.50;93.70
24664;DHT22;12791;50.992;13.788;2022-08-19T00:38:37;22.50;94.60
24664;DHT22;12791;50.992;13.788;2022-08-19T00:41:09;22.40;95.50
24664;DHT22;12791;50.992;13.788;2022-08-19T00:43:35;22.40;96.40
24664;DHT22;12791;50.992;13.788;2022-08-19T00:46:05;22.40;96.60
24664;DHT22;12791;50.992;13.788;2022-08-19T00:48:33;22.30;97.00
24664;DHT22;12791;50.992;13.788;2022-08-19T00:51:01;22.30;97.30
24664;DHT22;12791;50.992;13.788;2022-08-19T00:53:31;22.30;97.50
24664;DHT22;12791;50.992;13.788;2022-08-19T00:56:00;22.30;97.70
24664;DHT22;12791;50.992;13.788;2022-08-19T00:58:30;22.30;97.90
24664;DHT22;12791;50.992;13.788;2022-08-19T01:00:57;22.20;98.20
24664;DHT22;12791;50.992;13.788;2022-08-19T01:03:25;22.20;98.40
24664;DHT22;12791;50.992;13.788;2022-08-19T01:05:53;22.10;98.60
24664;DHT22;12791;50.992;13.788;2022-08-19T01:08:20;22.10;98.50
24664;DHT22;12791;50.992;13.788;2022-08-19T01:10:49;22.10;98.70
24664;DHT22;12791;50.992;13.788;2022-08-19T01:13:17;22.10;98.70
24664;DHT22;12791;50.992;13.788;2022-08-19T01:15:47;22.10;99.00
24664;DHT22;12791;50.992;13.788;2022-08-19T01:18:16;22.10;99.00
24664;DHT22;12791;50.992;13.788;2022-08-19T01:20:45;22.00;99.10
24664;DHT22;12791;50.992;13.788;2022-08-19T01:23:15;22.00;99.20
24664;DHT22;12791;50.992;13.788;2022-08-19T01:25:45;22.00;99.10
24664;DHT22;12791;50.992;13.788;2022-08-19T01:28:18;22.00;99.30
24664;DHT22;12791;50.992;13.788;2022-08-19T01:30:45;22.00;99.30
24664;DHT22;12791;50.992;13.788;2022-08-19T01:33:12;22.00;99.40
24664;DHT22;12791;50.992;13.788;2022-08-19T01:35:41;22.00;99.50
24664;DHT22;12791;50.992;13.788;2022-08-19T01:38:18;22.00;99.40
24664;DHT22;12791;50.992;13.788;2022-08-19T01:40:46;22.00;99.50
24664;DHT22;12791;50.992;13.788;2022-08-19T01:43:13;22.00;99.70
24664;DHT22;12791;50.992;13.788;2022-08-19T01:45:39;22.00;99.80
24664;DHT22;12791;50.992;13.788;2022-08-19T01:48:07;22.00;99.90
24664;DHT22;12791;50.992;13.788;2022-08-19T01:50:35;22.00;99.90
24664;DHT22;12791;50.992;13.788;2022-08-19T01:53:04;22.00;99.90
24664;DHT22;12791;50.992;13.788;2022-08-19T01:55:31;22.00;99.90
24664;DHT22;12791;50.992;13.788;2022-08-19T01:58:01;22.00;99.90
24664;DHT22;12791;50.992;13.788;2022-08-19T02:00:30;22.00;99.90
24664;DHT22;12791;50.992;13.788;2022-08-19T02:02:57;22.00;99.90
24664;DHT22;12791;50.992;13.788;2022-08-19T02:05:24;22.00;99.90
24664;DHT22;12791;50.992;13.788;2022-08-19T02:07:51;22.00;99.90
24664;DHT22;12791;50.992;13.788;2022-08-19T02:10:20;21.90;99.90
24664;DHT22;12791;50.992;13.788;2022-08-19T02:12:48;21.90;99.90
24664;DHT22;12791;50.992;13.788;2022-08-19T02:15:18;22.00;99.90
24664;DHT22;12791;50.992;13.788;2022-08-19T02:17:45;22.00;99.90
24664;DHT22;12791;50.992;13.788;2022-08-19T02:20:13;21.90;99.90
24664;DHT22;12791;50.992;13.788;2022-08-19T02:22:40;22.00;99.90
24664;DHT22;12791;50.992;13.788;2022-08-19T02:25:08;21.90;99.90
24664;DHT22;12791;50.992;13.788;2022-08-19T02:27:35;22.00;99.90
24664;DHT22;12791;50.992;13.788;2022-08-19T02:30:04;21.90;99.90
24664;DHT22;12791;50.992;13.788;2022-08-19T02:32:32;22.00;99.90
24664;DHT22;12791;50.992;13.788;2022-08-19T02:34:59;22.00;99.90
24664;DHT22;12791;50.992;13.788;2022-08-19T02:37:26;21.90;99.90
24664;DHT22;12791;50.992;13.788;2022-08-19T02:40:11;21.90;99.90
24664;DHT22;12791;50.992;13.788;2022-08-19T02:42:37;21.90;99.90
24664;DHT22;12791;50.992;13.788;2022-08-19T02:45:06;21.90;99.90
24664;DHT22;12791;50.992;13.788;2022-08-19T02:47:34;21.90;99.90
24664;DHT22;12791;50.992;13.788;2022-08-19T02:50:01;21.90;99.90
24664;DHT22;12791;50.992;13.788;2022-08-19T02:52:29;21.90;99.90
24664;DHT22;12791;50.992;13.788;2022-08-19T02:54:55;21.90;99.90
24664;DHT22;12791;50.992;13.788;2022-08-19T02:57:22;21.90;99.90
24664;DHT22;12791;50.992;13.788;2022-08-19T02:59:49;21.90;99.90
24664;DHT22;12791;50.992;13.788;2022-08-19T03:02:16;21.90;99.90
24664;DHT22;12791;50.992;13.788;2022-08-19T03:04:44;21.90;99.90
24664;DHT22;12791;50.992;13.788;2022-08-19T03:07:13;21.90;99.90
24664;DHT22;12791;50.992;13.788;2022-08-19T03:09:40;21.90;99.90
24664;DHT22;12791;50.992;13.788;2022-08-19T03:12:08;21.90;99.90
24664;DHT22;12791;50.992;13.788;2022-08-19T03:14:36;21.90;99.90
24664;DHT22;12791;50.992;13.788;2022-08-19T03:17:04;21.90;99.90
24664;DHT22;12791;50.992;13.788;2022-08-19T03:19:31;21.90;99.90
24664;DHT22;12791;50.992;13.788;2022-08-19T03:21:59;21.90;99.90
24664;DHT22;12791;50.992;13.788;2022-08-19T03:24:26;21.90;99.90
24664;DHT22;12791;50.992;13.788;2022-08-19T03:26:54;21.90;99.90
24664;DHT22;12791;50.992;13.788;2022-08-19T03:29:24;21.90;99.90
24664;DHT22;12791;50.992;13.788;2022-08-19T03:31:51;21.90;99.90
24664;DHT22;12791;50.992;13.788;2022-08-19T03:34:20;21.90;99.90
24664;DHT22;12791;50.992;13.788;2022-08-19T03:36:47;21.90;99.90
24664;DHT22;12791;50.992;13.788;2022-08-19T03:39:16;21.90;99.90
24664;DHT22;12791;50.992;13.788;2022-08-19T03:41:44;21.90;99.90
24664;DHT22;12791;50.992;13.788;2022-08-19T03:44:12;21.90;99.90
24664;DHT22;12791;50.992;13.788;2022-08-19T03:46:39;21.90;99.90
24664;DHT22;12791;50.992;13.788;2022-08-19T03:49:05;21.90;99.90
24664;DHT22;12791;50.992;13.788;2022-08-19T03:51:35;21.90;99.90
24664;DHT22;12791;50.992;13.788;2022-08-19T03:54:05;21.90;99.90
24664;DHT22;12791;50.992;13.788;2022-08-19T03:56:35;21.90;99.90
24664;DHT22;12791;50.992;13.788;2022-08-19T03:59:04;21.90;99.90
24664;DHT22;12791;50.992;13.788;2022-08-19T04:01:31;21.90;99.90
24664;DHT22;12791;50.992;13.788;2022-08-19T04:03:59;21.90;99.90
24664;DHT22;12791;50.992;13.788;2022-08-19T04:06:28;21.90;99.90
24664;DHT22;12791;50.992;13.788;2022-08-19T04:08:56;21.90;99.90
24664;DHT22;12791;50.992;13.788;2022-08-19T04:11:26;21.90;99.90
24664;DHT22;12791;50.992;13.788;2022-08-19T04:13:55;21.90;99.90
24664;DHT22;12791;50.992;13.788;2022-08-19T04:16:24;21.90;99.90
24664;DHT22;12791;50.992;13.788;2022-08-19T04:18:54;21.90;99.90
24664;DHT22;12791;50.992;13.788;2022-08-19T04:21:23;21.90;99.90
24664;DHT22;12791;50.992;13.788;2022-08-19T04:23:51;21.90;99.90
24664;DHT22;12791;50.992;13.788;2022-08-19T04:26:20;21.90;99.90
24664;DHT22;12791;50.992;13.788;2022-08-19T04:28:47;21.80;99.90
24664;DHT22;12791;50.992;13.788;2022-08-19T04:31:19;21.80;99.90
24664;DHT22;12791;50.992;13.788;2022-08-19T04:33:46;21.80;99.90
24664;DHT22;12791;50.992;13.788;2022-08-19T04:36:16;21.80;99.90
24664;DHT22;12791;50.992;13.788;2022-08-19T04:38:46;21.80;99.90
24664;DHT22;12791;50.992;13.788;2022-08-19T04:41:13;21.80;99.90
24664;DHT22;12791;50.992;13.788;2022-08-19T04:43:57;21.80;99.90
24664;DHT22;12791;50.992;13.788;2022-08-19T04:46:25;21.80;99.90
24664;DHT22;12791;50.992;13.788;2022-08-19T04:48:51;21.80;99.90
24664;DHT22;12791;50.992;13.788;2022-08-19T04:51:18;21.80;99.90
24664;DHT22;12791;50.992;13.788;2022-08-19T04:53:46;21.80;99.90
24664;DHT22;12791;50.992;13.788;2022-08-19T04:56:15;21.80;99.90
24664;DHT22;12791;50.992;13.788;2022-08-19T04:58:43;21.80;99.90
24664;DHT22;12791;50.992;13.788;2022-08-19T05:01:12;21.80;99.90
24664;DHT22;12791;50.992;13.788;2022-08-19T05:03:40;21.80;99.90
24664;DHT22;12791;50.992;13.788;2022-08-19T05:06:09;21.80;99.90
24664;DHT22;12791;50.992;13.788;2022-08-19T05:08:38;21.80;99.90
24664;DHT22;12791;50.992;13.788;2022-08-19T05:11:09;21.80;99.90
24664;DHT22;12791;50.992;13.788;2022-08-19T05:13:37;21.80;99.90
24664;DHT22;12791;50.992;13.788;2022-08-19T05:16:04;21.80;99.90
24664;DHT22;12791;50.992;13.788;2022-08-19T05:18:30;21.80;99.90
24664;DHT22;12791;50.992;13.788;2022-08-19T05:21:28;21.80;99.90
24664;DHT22;12791;50.992;13.788;2022-08-19T05:24:13;21.80;99.90
24664;DHT22;12791;50.992;13.788;2022-08-19T05:26:41;21.80;99.90
24664;DHT22;12791;50.992;13.788;2022-08-19T05:29:09;21.80;99.90
24664;DHT22;12791;50.992;13.788;2022-08-19T05:31:36;21.80;99.90
24664;DHT22;12791;50.992;13.788;2022-08-19T05:34:05;21.80;99.90
24664;DHT22;12791;50.992;13.788;2022-08-19T05:36:39;21.90;99.90
24664;DHT22;12791;50.992;13.788;2022-08-19T05:39:06;21.80;99.90
24664;DHT22;12791;50.992;13.788;2022-08-19T05:41:33;21.80;99.90
24664;DHT22;12791;50.992;13.788;2022-08-19T05:44:02;21.80;99.90
24664;DHT22;12791;50.992;13.788;2022-08-19T05:46:31;21.70;99.90
24664;DHT22;12791;50.992;13.788;2022-08-19T05:48:58;21.70;99.90
24664;DHT22;12791;50.992;13.788;2022-08-19T05:51:25;21.60;99.90
24664;DHT22;12791;50.992;13.788;2022-08-19T05:53:53;21.60;99.90
24664;DHT22;12791;50.992;13.788;2022-08-19T05:56:19;21.60;99.90
24664;DHT22;12791;50.992;13.788;2022-08-19T05:58:46;21.60;99.90
24664;DHT22;12791;50.992;13.788;2022-08-19T06:01:15;21.60;99.90
24664;DHT22;12791;50.992;13.788;2022-08-19T06:03:43;21.60;99.90
24664;DHT22;12791;50.992;13.788;2022-08-19T06:06:12;21.50;99.90
24664;DHT22;12791;50.992;13.788;2022-08-19T06:08:39;21.50;99.90
24664;DHT22;12791;50.992;13.788;2022-08-19T06:11:15;21.50;99.90
24664;DHT22;12791;50.992;13.788;2022-08-19T06:13:44;21.50;99.90
24664;DHT22;12791;50.992;13.788;2022-08-19T06:16:12;21.50;99.90
24664;DHT22;12791;50.992;13.788;2022-08-19T06:18:46;21.50;99.90
24664;DHT22;12791;50.992;13.788;2022-08-19T06:21:13;21.50;99.90
24664;DHT22;12791;50.992;13.788;2022-08-19T06:23:40;21.50;99.90
24664;DHT22;12791;50.992;13.788;2022-08-19T06:26:11;21.40;99.90
24664;DHT22;12791;50.992;13.788;2022-08-19T06:28:39;21.40;99.90
24664;DHT22;12791;50.992;13.788;2022-08-19T06:31:08;21.40;99.90
24664;DHT22;12791;50.992;13.788;2022-08-19T06:33:35;21.40;99.90
24664;DHT22;12791;50.992;13.788;2022-08-19T06:36:03;21.40;99.90
24664;DHT22;12791;50.992;13.788;2022-08-19T06:38:29;21.40;99.90
24664;DHT22;12791;50.992;13.788;2022-08-19T06:41:00;21.40;99.90
24664;DHT22;12791;50.992;13.788;2022-08-19T06:43:27;21.40;99.90
24664;DHT22;12791;50.992;13.788;2022-08-19T06:45:55;21.40;99.90
24664;DHT22;12791;50.992;13.788;2022-08-19T06:48:22;21.50;99.90
24664;DHT22;12791;50.992;13.788;2022-08-19T06:50:48;21.50;99.90
24664;DHT22;12791;50.992;13.788;2022-08-19T06:53:16;21.50;99.90
24664;DHT22;12791;50.992;13.788;2022-08-19T06:55:44;21.50;99.90
24664;DHT22;12791;50.992;13.788;2022-08-19T06:58:11;21.50;99.90
24664;DHT22;12791;50.992;13.788;2022-08-19T07:00:37;21.50;99.90
24664;DHT22;12791;50.992;13.788;2022-08-19T07:03:06;21.50;99.90
24664;DHT22;12791;50.992;13.788;2022-08-19T07:05:32;21.50;99.90
24664;DHT22;12791;50.992;13.788;2022-08-19T07:07:59;21.60;99.90
24664;DHT22;12791;50.992;13.788;2022-08-19T07:10:25;21.60;99.90
24664;DHT22;12791;50.992;13.788;2022-08-19T07:12:52;21.60;99.90
24664;DHT22;12791;50.992;13.788;2022-08-19T07:15:19;21.60;99.90
24664;DHT22;12791;50.992;13.788;2022-08-19T07:17:46;21.60;99.90
24664;DHT22;12791;50.992;13.788;2022-08-19T07:20:15;21.60;99.90
24664;DHT22;12791;50.992;13.788;2022-08-19T07:22:41;21.60;99.90
24664;DHT22;12791;50.992;13.788;2022-08-19T07:25:09;21.60;99.90
24664;DHT22;12791;50.992;13.788;2022-08-19T07:27:36;21.60;99.90
24664;DHT22;12791;50.992;13.788;2022-08-19T07:30:04;21.50;99.90
24664;DHT22;12791;50.992;13.788;2022-08-19T07:32:31;21.60;99.90
24664;DHT22;12791;50.992;13.788;2022-08-19T07:34:58;21.60;99.90
24664;DHT22;12791;50.992;13.788;2022-08-19T07:37:27;21.60;99.90
24664;DHT22;12791;50.992;13.788;2022-08-19T07:39:54;21.60;99.90
24664;DHT22;12791;50.992;13.788;2022-08-19T07:42:20;21.60;99.90
24664;DHT22;12791;50.992;13.788;2022-08-19T07:44:47;21.60;99.90
24664;DHT22;12791;50.992;13.788;2022-08-19T07:47:14;21.60;99.90
24664;DHT22;12791;50.992;13.788;2022-08-19T07:49:42;21.50;99.90
24664;DHT22;12791;50.992;13.788;2022-08-19T07:52:09;21.50;99.90
24664;DHT22;12791;50.992;13.788;2022-08-19T07:54:38;21.50;99.90
24664;DHT22;12791;50.992;13.788;2022-08-19T07:57:06;21.50;99.90
24664;DHT22;12791;50.992;13.788;2022-08-19T07:59:33;21.50;99.90
24664;DHT22;12791;50.992;13.788;2022-08-19T08:02:00;21.50;99.90
24664;DHT22;12791;50.992;13.788;2022-08-19T08:04:28;21.50;99.90
24664;DHT22;12791;50.992;13.788;2022-08-19T08:07:13;21.50;99.90
24664;DHT22;12791;50.992;13.788;2022-08-19T08:09:59;21.50;99.90
24664;DHT22;12791;50.992;13.788;2022-08-19T08:12:28;21.50;99.90
24664;DHT22;12791;50.992;13.788;2022-08-19T08:14:58;21.40;99.90
24664;DHT22;12791;50.992;13.788;2022-08-19T08:17:28;21.40;99.90
24664;DHT22;12791;50.992;13.788;2022-08-19T08:19:55;21.40;99.90
24664;DHT22;12791;50.992;13.788;2022-08-19T08:22:23;21.40;99.90
24664;DHT22;12791;50.992;13.788;2022-08-19T08:25:07;21.50;99.90
24664;DHT22;12791;50.992;13.788;2022-08-19T08:27:35;21.50;99.90
24664;DHT22;12791;50.992;13.788;2022-08-19T08:30:05;21.50;99.90
24664;DHT22;12791;50.992;13.788;2022-08-19T08:32:34;21.50;99.90
24664;DHT22;12791;50.992;13.788;2022-08-19T08:35:01;21.50;99.90
24664;DHT22;12791;50.992;13.788;2022-08-19T08:37:27;21.50;99.90
24664;DHT22;12791;50.992;13.788;2022-08-19T08:39:55;21.50;99.90
24664;DHT22;12791;50.992;13.788;2022-08-19T08:42:27;21.50;99.90
24664;DHT22;12791;50.992;13.788;2022-08-19T08:45:00;21.50;99.90
24664;DHT22;12791;50.992;13.788;2022-08-19T08:47:31;21.60;99.90
24664;DHT22;12791;50.992;13.788;2022-08-19T08:50:05;21.50;99.90
24664;DHT22;12791;50.992;13.788;2022-08-19T08:52:35;21.50;99.90
24664;DHT22;12791;50.992;13.788;2022-08-19T08:55:07;21.50;99.90
24664;DHT22;12791;50.992;13.788;2022-08-19T08:57:38;21.50;99.90
24664;DHT22;12791;50.992;13.788;2022-08-19T09:00:08;21.60;99.90
24664;DHT22;12791;50.992;13.788;2022-08-19T09:02:36;21.60;99.90
24664;DHT22;12791;50.992;13.788;2022-08-19T09:05:03;21.60;99.90
24664;DHT22;12791;50.992;13.788;2022-08-19T09:07:40;21.60;99.90
24664;DHT22;12791;50.992;13.788;2022-08-19T09:10:13;21.60;99.90
24664;DHT22;12791;50.992;13.788;2022-08-19T09:12:50;21.60;99.90
24664;DHT22;12791;50.992;13.788;2022-08-19T09:15:25;21.60;99.90
24664;DHT22;12791;50.992;13.788;2022-08-19T09:17:53;21.60;99.90
24664;DHT22;12791;50.992;13.788;2022-08-19T09:20:22;21.60;99.90
24664;DHT22;12791;50.992;13.788;2022-08-19T09:22:49;21.70;99.90
24664;DHT22;12791;50.992;13.788;2022-08-19T09:25:19;21.70;99.90
24664;DHT22;12791;50.992;13.788;2022-08-19T09:27:49;21.70;99.90
24664;DHT22;12791;50.992;13.788;2022-08-19T09:30:19;21.70;99.90
24664;DHT22;12791;50.992;13.788;2022-08-19T09:32:47;21.70;99.90
24664;DHT22;12791;50.992;13.788;2022-08-19T09:35:14;21.70;99.90
24664;DHT22;12791;50.992;13.788;2022-08-19T09:37:42;21.80;99.90
24664;DHT22;12791;50.992;13.788;2022-08-19T09:40:09;21.80;99.90
24664;DHT22;12791;50.992;13.788;2022-08-19T09:42:37;21.80;99.90
24664;DHT22;12791;50.992;13.788;2022-08-19T09:45:06;21.90;99.90
24664;DHT22;12791;50.992;13.788;2022-08-19T09:47:32;21.90;99.90
24664;DHT22;12791;50.992;13.788;2022-08-19T09:50:01;22.00;99.90
24664;DHT22;12791;50.992;13.788;2022-08-19T09:52:28;22.10;99.90
24664;DHT22;12791;50.992;13.788;2022-08-19T09:54:54;22.10;99.90
24664;DHT22;12791;50.992;13.788;2022-08-19T09:57:21;22.30;99.90
24664;DHT22;12791;50.992;13.788;2022-08-19T09:59:47;22.30;99.90
24664;DHT22;12791;50.992;13.788;2022-08-19T10:02:15;22.40;99.90
24664;DHT22;12791;50.992;13.788;2022-08-19T10:04:43;22.40;99.90
24664;DHT22;12791;50.992;13.788;2022-08-19T10:07:29;22.50;99.90
24664;DHT22;12791;50.992;13.788;2022-08-19T10:09:56;22.50;99.90
24664;DHT22;12791;50.992;13.788;2022-08-19T10:12:22;22.60;99.90
24664;DHT22;12791;50.992;13.788;2022-08-19T10:14:49;22.60;99.90
24664;DHT22;12791;50.992;13.788;2022-08-19T10:17:18;22.60;99.90
24664;DHT22;12791;50.992;13.788;2022-08-19T10:19:44;22.60;99.90
24664;DHT22;12791;50.992;13.788;2022-08-19T10:22:11;22.60;99.90
24664;DHT22;12791;50.992;13.788;2022-08-19T10:24:39;22.60;99.80
24664;DHT22;12791;50.992;13.788;2022-08-19T10:27:06;22.60;99.80
24664;DHT22;12791;50.992;13.788;2022-08-19T10:29:33;22.60;99.30
24664;DHT22;12791;50.992;13.788;2022-08-19T10:32:02;22.70;99.30
24664;DHT22;12791;50.992;13.788;2022-08-19T10:34:31;22.70;99.30
24664;DHT22;12791;50.992;13.788;2022-08-19T10:36:59;22.80;99.40
24664;DHT22;12791;50.992;13.788;2022-08-19T10:39:27;22.90;99.00
24664;DHT22;12791;50.992;13.788;2022-08-19T10:41:53;22.90;98.70
24664;DHT22;12791;50.992;13.788;2022-08-19T10:44:22;22.90;98.90
24664;DHT22;12791;50.992;13.788;2022-08-19T10:46:49;22.90;99.00
24664;DHT22;12791;50.992;13.788;2022-08-19T10:49:17;22.90;98.50
24664;DHT22;12791;50.992;13.788;2022-08-19T10:51:45;22.90;98.10
24664;DHT22;12791;50.992;13.788;2022-08-19T10:54:29;23.00;98.20
24664;DHT22;12791;50.992;13.788;2022-08-19T10:57:10;23.00;98.00
24664;DHT22;12791;50.992;13.788;2022-08-19T10:59:37;23.00;98.10
24664;DHT22;12791;50.992;13.788;2022-08-19T11:02:05;23.00;98.00
24664;DHT22;12791;50.992;13.788;2022-08-19T11:04:35;23.00;97.80
24664;DHT22;12791;50.992;13.788;2022-08-19T11:07:03;23.10;98.00
24664;DHT22;12791;50.992;13.788;2022-08-19T11:09:31;23.10;97.80
24664;DHT22;12791;50.992;13.788;2022-08-19T11:11:57;23.20;97.40
24664;DHT22;12791;50.992;13.788;2022-08-19T11:14:24;23.20;97.20
24664;DHT22;12791;50.992;13.788;2022-08-19T11:16:52;23.30;97.00
24664;DHT22;12791;50.992;13.788;2022-08-19T11:19:21;23.30;96.80
24664;DHT22;12791;50.992;13.788;2022-08-19T11:21:49;23.40;96.60
24664;DHT22;12791;50.992;13.788;2022-08-19T11:24:19;23.40;96.30
24664;DHT22;12791;50.992;13.788;2022-08-19T11:26:48;23.40;95.90
24664;DHT22;12791;50.992;13.788;2022-08-19T11:29:17;23.40;96.10
24664;DHT22;12791;50.992;13.788;2022-08-19T11:31:46;23.40;96.20
24664;DHT22;12791;50.992;13.788;2022-08-19T11:34:16;23.40;96.10
24664;DHT22;12791;50.992;13.788;2022-08-19T11:36:45;23.40;96.20
24664;DHT22;12791;50.992;13.788;2022-08-19T11:39:15;23.40;96.10
24664;DHT22;12791;50.992;13.788;2022-08-19T11:41:44;23.40;95.90
24664;DHT22;12791;50.992;13.788;2022-08-19T11:44:11;23.30;95.90
24664;DHT22;12791;50.992;13.788;2022-08-19T11:46:40;23.30;96.00
24664;DHT22;12791;50.992;13.788;2022-08-19T11:49:11;23.30;95.80
24664;DHT22;12791;50.992;13.788;2022-08-19T11:51:38;23.30;95.70
24664;DHT22;12791;50.992;13.788;2022-08-19T11:54:05;23.30;95.30
24664;DHT22;12791;50.992;13.788;2022-08-19T11:56:32;23.30;95.70
24664;DHT22;12791;50.992;13.788;2022-08-19T11:59:00;23.30;95.50
24664;DHT22;12791;50.992;13.788;2022-08-19T12:01:27;23.30;95.40
24664;DHT22;12791;50.992;13.788;2022-08-19T12:03:56;23.30;95.30
24664;DHT22;12791;50.992;13.788;2022-08-19T12:06:24;23.30;95.20
24664;DHT22;12791;50.992;13.788;2022-08-19T12:08:53;23.30;95.40
24664;DHT22;12791;50.992;13.788;2022-08-19T12:11:20;23.20;95.50
24664;DHT22;12791;50.992;13.788;2022-08-19T12:13:47;23.20;95.60
24664;DHT22;12791;50.992;13.788;2022-08-19T12:16:18;23.10;95.70
24664;DHT22;12791;50.992;13.788;2022-08-19T12:18:45;23.10;95.90
24664;DHT22;12791;50.992;13.788;2022-08-19T12:21:12;23.10;96.00
24664;DHT22;12791;50.992;13.788;2022-08-19T12:23:39;23.00;96.10
24664;DHT22;12791;50.992;13.788;2022-08-19T12:26:08;23.00;96.10
24664;DHT22;12791;50.992;13.788;2022-08-19T12:28:35;23.00;96.40
24664;DHT22;12791;50.992;13.788;2022-08-19T12:31:02;22.90;96.50
24664;DHT22;12791;50.992;13.788;2022-08-19T12:33:30;23.00;96.50
24664;DHT22;12791;50.992;13.788;2022-08-19T12:36:01;23.00;96.50
24664;DHT22;12791;50.992;13.788;2022-08-19T12:38:29;23.00;96.50
24664;DHT22;12791;50.992;13.788;2022-08-19T12:40:56;23.00;96.50
24664;DHT22;12791;50.992;13.788;2022-08-19T12:43:22;22.90;96.40
24664;DHT22;12791;50.992;13.788;2022-08-19T12:45:49;22.90;96.40
24664;DHT22;12791;50.992;13.788;2022-08-19T12:48:16;22.90;96.50
24664;DHT22;12791;50.992;13.788;2022-08-19T12:50:45;22.90;96.60
24664;DHT22;12791;50.992;13.788;2022-08-19T12:53:12;22.90;96.60
24664;DHT22;12791;50.992;13.788;2022-08-19T12:55:38;22.90;96.70
24664;DHT22;12791;50.992;13.788;2022-08-19T12:58:05;22.90;96.70
24664;DHT22;12791;50.992;13.788;2022-08-19T13:00:33;22.80;96.70
24664;DHT22;12791;50.992;13.788;2022-08-19T13:03:00;22.80;96.60
24664;DHT22;12791;50.992;13.788;2022-08-19T13:05:28;22.80;96.70
24664;DHT22;12791;50.992;13.788;2022-08-19T13:07:58;22.80;96.80
24664;DHT22;12791;50.992;13.788;2022-08-19T13:10:28;22.80;96.70
24664;DHT22;12791;50.992;13.788;2022-08-19T13:12:56;22.80;96.70
24664;DHT22;12791;50.992;13.788;2022-08-19T13:15:25;22.80;96.70
24664;DHT22;12791;50.992;13.788;2022-08-19T13:17:57;22.80;96.50
24664;DHT22;12791;50.992;13.788;2022-08-19T13:20:24;22.90;96.40
24664;DHT22;12791;50.992;13.788;2022-08-19T13:22:51;22.90;96.40
24664;DHT22;12791;50.992;13.788;2022-08-19T13:25:19;22.90;96.40
24664;DHT22;12791;50.992;13.788;2022-08-19T13:27:47;22.90;96.30
24664;DHT22;12791;50.992;13.788;2022-08-19T13:30:16;22.90;96.30
24664;DHT22;12791;50.992;13.788;2022-08-19T13:33:12;22.90;96.20
24664;DHT22;12791;50.992;13.788;2022-08-19T13:35:42;22.90;95.80
24664;DHT22;12791;50.992;13.788;2022-08-19T13:38:09;23.00;95.80
24664;DHT22;12791;50.992;13.788;2022-08-19T13:40:38;23.00;95.80
24664;DHT22;12791;50.992;13.788;2022-08-19T13:43:05;23.00;95.80
24664;DHT22;12791;50.992;13.788;2022-08-19T13:45:32;23.00;95.80
24664;DHT22;12791;50.992;13.788;2022-08-19T13:48:01;22.90;95.80
24664;DHT22;12791;50.992;13.788;2022-08-19T13:50:32;22.90;96.10
24664;DHT22;12791;50.992;13.788;2022-08-19T13:53:00;22.90;96.20
24664;DHT22;12791;50.992;13.788;2022-08-19T13:55:27;22.90;96.20
24664;DHT22;12791;50.992;13.788;2022-08-19T13:57:57;22.80;96.20
24664;DHT22;12791;50.992;13.788;2022-08-19T14:00:25;22.80;96.30
24664;DHT22;12791;50.992;13.788;2022-08-19T14:02:54;22.80;96.30
24664;DHT22;12791;50.992;13.788;2022-08-19T14:05:22;22.80;96.40
24664;DHT22;12791;50.992;13.788;2022-08-19T14:07:48;22.80;96.60
24664;DHT22;12791;50.992;13.788;2022-08-19T14:10:17;22.70;96.80
24664;DHT22;12791;50.992;13.788;2022-08-19T14:12:44;22.70;97.10
24664;DHT22;12791;50.992;13.788;2022-08-19T14:15:13;22.60;97.20
24664;DHT22;12791;50.992;13.788;2022-08-19T14:17:42;22.60;97.80
24664;DHT22;12791;50.992;13.788;2022-08-19T14:20:11;22.50;98.20
24664;DHT22;12791;50.992;13.788;2022-08-19T14:22:39;22.50;98.40
24664;DHT22;12791;50.992;13.788;2022-08-19T14:25:09;22.40;98.70
24664;DHT22;12791;50.992;13.788;2022-08-19T14:27:37;22.40;98.90
24664;DHT22;12791;50.992;13.788;2022-08-19T14:30:04;22.40;99.40
24664;DHT22;12791;50.992;13.788;2022-08-19T14:32:33;22.40;99.50
24664;DHT22;12791;50.992;13.788;2022-08-19T14:35:00;22.30;99.80
24664;DHT22;12791;50.992;13.788;2022-08-19T14:37:27;22.40;99.90
24664;DHT22;12791;50.992;13.788;2022-08-19T14:39:53;22.40;99.80
24664;DHT22;12791;50.992;13.788;2022-08-19T14:42:20;22.40;99.80
24664;DHT22;12791;50.992;13.788;2022-08-19T14:44:47;22.50;99.70
24664;DHT22;12791;50.992;13.788;2022-08-19T14:47:14;22.50;99.40
24664;DHT22;12791;50.992;13.788;2022-08-19T14:49:42;22.50;99.20
24664;DHT22;12791;50.992;13.788;2022-08-19T14:52:09;22.50;99.20
24664;DHT22;12791;50.992;13.788;2022-08-19T14:54:35;22.50;98.90
24664;DHT22;12791;50.992;13.788;2022-08-19T14:57:02;22.50;98.60
24664;DHT22;12791;50.992;13.788;2022-08-19T14:59:29;22.50;98.60
24664;DHT22;12791;50.992;13.788;2022-08-19T15:01:56;22.50;98.50
24664;DHT22;12791;50.992;13.788;2022-08-19T15:04:22;22.50;98.50
24664;DHT22;12791;50.992;13.788;2022-08-19T15:06:50;22.50;98.40
24664;DHT22;12791;50.992;13.788;2022-08-19T15:09:17;22.40;98.40
24664;DHT22;12791;50.992;13.788;2022-08-19T15:11:43;22.40;98.40
24664;DHT22;12791;50.992;13.788;2022-08-19T15:14:10;22.40;98.50
24664;DHT22;12791;50.992;13.788;2022-08-19T15:16:37;22.40;98.60
24664;DHT22;12791;50.992;13.788;2022-08-19T15:19:07;22.30;98.60
24664;DHT22;12791;50.992;13.788;2022-08-19T15:21:34;22.30;98.70
24664;DHT22;12791;50.992;13.788;2022-08-19T15:24:03;22.30;98.80